sensor_id;sensor_type;location;lat;lon;timestamp;P1;durP1;ratioP1;P2;durP2;ratioP2
2854;SDS011;1435;49.472;10.940;2022-11-30T00:02:45;17.60;;;13.07;;
2854;SDS011;1435;49.472;10.940;2022-11-30T00:07:54;18.07;;;12.70;;
2854;SDS011;1435;49.472;10.940;2022-11-30T00:12:55;15.57;;;13.20;;
2854;SDS011;1435;49.472;10.940;2022-11-30T00:17:57;15.67;;;12.97;;
2854;SDS011;1435;49.472;10.940;2022-11-30T00:23:01;13.73;;;11.60;;
2854;SDS011;1435;49.472;10.940;2022-11-30T00:28:03;15.07;;;12.40;;
2854;SDS011;1435;49.472;10.940;2022-11-30T00:33:05;13.43;;;10.80;;
2854;SDS011;1435;49.472;10.940;2022-11-30T00:38:08;12.43;;;11.10;;
2854;SDS011;1435;49.472;10.940;2022-11-30T00:43:09;13.53;;;12.10;;
2854;SDS011;1435;49.472;10.940;2022-11-30T00:48:11;13.03;;;10.73;;
2854;SDS011;1435;49.472;10.940;2022-11-30T00:53:14;11.40;;;10.30;;
2854;SDS011;1435;49.472;10.940;2022-11-30T00:58:16;10.70;;;9.60;;
2854;SDS011;1435;49.472;10.940;2022-11-30T01:03:18;9.90;;;8.80;;
2854;SDS011;1435;49.472;10.940;2022-11-30T01:08:21;9.60;;;8.60;;
2854;SDS011;1435;49.472;10.940;2022-11-30T01:13:25;10.60;;;8.80;;
2854;SDS011;1435;49.472;10.940;2022-11-30T01:18:27;10.57;;;9.50;;
2854;SDS011;1435;49.472;10.940;2022-11-30T01:23:30;10.27;;;9.27;;
2854;SDS011;1435;49.472;10.940;2022-11-30T01:28:32;11.37;;;9.67;;
2854;SDS011;1435;49.472;10.940;2022-11-30T01:33:34;9.47;;;8.53;;
2854;SDS011;1435;49.472;10.940;2022-11-30T01:38:38;9.73;;;8.73;;
2854;SDS011;1435;49.472;10.940;2022-11-30T01:43:42;10.03;;;8.93;;
2854;SDS011;1435;49.472;10.940;2022-11-30T01:48:45;11.20;;;10.10;;
2854;SDS011;1435;49.472;10.940;2022-11-30T01:53:55;9.43;;;8.10;;
2854;SDS011;1435;49.472;10.940;2022-11-30T01:58:57;11.63;;;8.33;;
2854;SDS011;1435;49.472;10.940;2022-11-30T02:04:01;13.17;;;9.97;;
2854;SDS011;1435;49.472;10.940;2022-11-30T02:09:07;14.53;;;9.97;;
2854;SDS011;1435;49.472;10.940;2022-11-30T02:14:12;11.50;;;9.73;;
2854;SDS011;1435;49.472;10.940;2022-11-30T02:19:38;12.83;;;9.90;;
2854;SDS011;1435;49.472;10.940;2022-11-30T02:25:18;12.90;;;10.90;;
2854;SDS011;1435;49.472;10.940;2022-11-30T02:30:30;13.43;;;10.90;;
2854;SDS011;1435;49.472;10.940;2022-11-30T02:35:35;13.67;;;10.50;;
2854;SDS011;1435;49.472;10.940;2022-11-30T02:40:40;13.17;;;10.87;;
2854;SDS011;1435;49.472;10.940;2022-11-30T02:45:47;12.13;;;10.27;;
2854;SDS011;1435;49.472;10.940;2022-11-30T02:50:56;13.60;;;10.40;;
2854;SDS011;1435;49.472;10.940;2022-11-30T02:56:00;13.47;;;10.40;;
2854;SDS011;1435;49.472;10.940;2022-11-30T03:01:03;14.23;;;10.87;;
2854;SDS011;1435;49.472;10.940;2022-11-30T03:06:05;18.23;;;10.80;;
2854;SDS011;1435;49.472;10.940;2022-11-30T03:11:07;13.73;;;10.83;;
2854;SDS011;1435;49.472;10.940;2022-11-30T03:16:11;13.00;;;10.70;;
2854;SDS011;1435;49.472;10.940;2022-11-30T03:21:13;14.87;;;11.57;;
2854;SDS011;1435;49.472;10.940;2022-11-30T03:26:15;14.03;;;10.87;;
2854;SDS011;1435;49.472;10.940;2022-11-30T03:31:18;12.40;;;10.30;;
2854;SDS011;1435;49.472;10.940;2022-11-30T03:36:20;16.97;;;11.30;;
2854;SDS011;1435;49.472;10.940;2022-11-30T03:41:22;13.10;;;9.37;;
2854;SDS011;1435;49.472;10.940;2022-11-30T03:46:25;11.20;;;9.87;;
2854;SDS011;1435;49.472;10.940;2022-11-30T03:51:27;11.50;;;10.30;;
2854;SDS011;1435;49.472;10.940;2022-11-30T03:56:29;13.13;;;9.90;;
2854;SDS011;1435;49.472;10.940;2022-11-30T04:01:32;15.07;;;11.40;;
2854;SDS011;1435;49.472;10.940;2022-11-30T04:06:35;15.43;;;10.60;;
2854;SDS011;1435;49.472;10.940;2022-11-30T04:11:37;14.57;;;10.20;;
2854;SDS011;1435;49.472;10.940;2022-11-30T04:16:40;13.17;;;9.67;;
2854;SDS011;1435;49.472;10.940;2022-11-30T04:21:41;16.97;;;11.37;;
2854;SDS011;1435;49.472;10.940;2022-11-30T04:26:43;14.30;;;11.80;;
2854;SDS011;1435;49.472;10.940;2022-11-30T04:31:47;13.60;;;10.80;;
2854;SDS011;1435;49.472;10.940;2022-11-30T04:36:48;15.00;;;10.83;;
2854;SDS011;1435;49.472;10.940;2022-11-30T04:41:50;14.90;;;11.20;;
2854;SDS011;1435;49.472;10.940;2022-11-30T04:46:53;13.37;;;10.77;;
2854;SDS011;1435;49.472;10.940;2022-11-30T04:51:55;12.73;;;9.73;;
2854;SDS011;1435;49.472;10.940;2022-11-30T04:56:57;14.63;;;11.90;;
2854;SDS011;1435;49.472;10.940;2022-11-30T05:02:00;13.80;;;11.43;;
2854;SDS011;1435;49.472;10.940;2022-11-30T05:07:01;15.07;;;10.57;;
2854;SDS011;1435;49.472;10.940;2022-11-30T05:12:03;14.47;;;11.13;;
2854;SDS011;1435;49.472;10.940;2022-11-30T05:17:07;17.73;;;12.30;;
2854;SDS011;1435;49.472;10.940;2022-11-30T05:22:08;18.47;;;13.10;;
2854;SDS011;1435;49.472;10.940;2022-11-30T05:27:10;18.57;;;13.23;;
2854;SDS011;1435;49.472;10.940;2022-11-30T05:32:13;15.87;;;11.50;;
2854;SDS011;1435;49.472;10.940;2022-11-30T05:37:15;17.20;;;13.33;;
2854;SDS011;1435;49.472;10.940;2022-11-30T05:42:17;15.60;;;12.27;;
2854;SDS011;1435;49.472;10.940;2022-11-30T05:47:20;22.40;;;14.90;;
2854;SDS011;1435;49.472;10.940;2022-11-30T05:52:21;22.17;;;15.53;;
2854;SDS011;1435;49.472;10.940;2022-11-30T05:57:23;20.70;;;14.10;;
2854;SDS011;1435;49.472;10.940;2022-11-30T06:02:26;22.33;;;15.40;;
2854;SDS011;1435;49.472;10.940;2022-11-30T06:07:28;23.33;;;15.00;;
2854;SDS011;1435;49.472;10.940;2022-11-30T06:12:30;22.37;;;14.83;;
2854;SDS011;1435;49.472;10.940;2022-11-30T06:17:33;28.30;;;16.90;;
2854;SDS011;1435;49.472;10.940;2022-11-30T06:22:36;22.67;;;15.13;;
2854;SDS011;1435;49.472;10.940;2022-11-30T06:27:38;23.33;;;15.07;;
2854;SDS011;1435;49.472;10.940;2022-11-30T06:32:44;23.30;;;16.70;;
2854;SDS011;1435;49.472;10.940;2022-11-30T06:37:46;29.80;;;18.53;;
2854;SDS011;1435;49.472;10.940;2022-11-30T06:42:48;24.43;;;16.57;;
2854;SDS011;1435;49.472;10.940;2022-11-30T06:47:54;27.20;;;16.00;;
2854;SDS011;1435;49.472;10.940;2022-11-30T06:52:56;20.40;;;14.87;;
2854;SDS011;1435;49.472;10.940;2022-11-30T06:58:03;24.80;;;17.77;;
2854;SDS011;1435;49.472;10.940;2022-11-30T07:03:06;30.07;;;18.07;;
2854;SDS011;1435;49.472;10.940;2022-11-30T07:08:08;22.63;;;16.33;;
2854;SDS011;1435;49.472;10.940;2022-11-30T07:13:10;21.43;;;15.83;;
2854;SDS011;1435;49.472;10.940;2022-11-30T07:18:14;24.73;;;16.30;;
2854;SDS011;1435;49.472;10.940;2022-11-30T07:23:15;27.77;;;18.80;;
2854;SDS011;1435;49.472;10.940;2022-11-30T07:28:35;24.33;;;17.30;;
2854;SDS011;1435;49.472;10.940;2022-11-30T07:33:40;24.80;;;16.77;;
2854;SDS011;1435;49.472;10.940;2022-11-30T07:38:42;29.87;;;17.27;;
2854;SDS011;1435;49.472;10.940;2022-11-30T07:43:44;24.03;;;16.70;;
2854;SDS011;1435;49.472;10.940;2022-11-30T07:48:47;26.60;;;16.03;;
2854;SDS011;1435;49.472;10.940;2022-11-30T07:53:49;27.73;;;19.20;;
2854;SDS011;1435;49.472;10.940;2022-11-30T07:58:52;30.20;;;18.50;;
2854;SDS011;1435;49.472;10.940;2022-11-30T08:03:57;27.67;;;16.97;;
2854;SDS011;1435;49.472;10.940;2022-11-30T08:08:59;28.70;;;17.40;;
2854;SDS011;1435;49.472;10.940;2022-11-30T08:14:03;30.07;;;19.07;;
2854;SDS011;1435;49.472;10.940;2022-11-30T08:19:06;32.47;;;19.47;;
2854;SDS011;1435;49.472;10.940;2022-11-30T08:24:08;32.30;;;19.47;;
2854;SDS011;1435;49.472;10.940;2022-11-30T08:29:12;28.37;;;18.00;;
2854;SDS011;1435;49.472;10.940;2022-11-30T08:34:15;28.77;;;17.87;;
2854;SDS011;1435;49.472;10.940;2022-11-30T08:39:17;31.20;;;18.70;;
2854;SDS011;1435;49.472;10.940;2022-11-30T08:44:19;31.27;;;17.50;;
2854;SDS011;1435;49.472;10.940;2022-11-30T08:49:22;31.57;;;18.40;;
2854;SDS011;1435;49.472;10.940;2022-11-30T08:54:24;32.93;;;19.80;;
2854;SDS011;1435;49.472;10.940;2022-11-30T08:59:26;30.60;;;17.93;;
2854;SDS011;1435;49.472;10.940;2022-11-30T09:04:31;32.97;;;17.40;;
2854;SDS011;1435;49.472;10.940;2022-11-30T09:09:34;31.90;;;20.40;;
2854;SDS011;1435;49.472;10.940;2022-11-30T09:14:35;31.53;;;18.23;;
2854;SDS011;1435;49.472;10.940;2022-11-30T09:19:39;24.20;;;17.37;;
2854;SDS011;1435;49.472;10.940;2022-11-30T09:24:41;30.57;;;18.00;;
2854;SDS011;1435;49.472;10.940;2022-11-30T09:29:42;28.67;;;17.40;;
2854;SDS011;1435;49.472;10.940;2022-11-30T09:34:46;31.93;;;19.40;;
2854;SDS011;1435;49.472;10.940;2022-11-30T09:39:47;33.97;;;19.87;;
2854;SDS011;1435;49.472;10.940;2022-11-30T09:44:51;28.20;;;17.83;;
2854;SDS011;1435;49.472;10.940;2022-11-30T09:50:02;30.90;;;18.27;;
2854;SDS011;1435;49.472;10.940;2022-11-30T09:55:11;30.00;;;18.77;;
2854;SDS011;1435;49.472;10.940;2022-11-30T10:00:18;26.03;;;17.60;;
2854;SDS011;1435;49.472;10.940;2022-11-30T10:05:23;29.87;;;17.80;;
2854;SDS011;1435;49.472;10.940;2022-11-30T10:10:31;25.47;;;16.17;;
2854;SDS011;1435;49.472;10.940;2022-11-30T10:15:40;24.50;;;16.20;;
2854;SDS011;1435;49.472;10.940;2022-11-30T10:20:59;24.20;;;16.40;;
2854;SDS011;1435;49.472;10.940;2022-11-30T10:26:11;22.23;;;16.13;;
2854;SDS011;1435;49.472;10.940;2022-11-30T10:31:15;25.67;;;16.23;;
2854;SDS011;1435;49.472;10.940;2022-11-30T10:36:22;24.57;;;15.53;;
2854;SDS011;1435;49.472;10.940;2022-11-30T10:41:28;26.30;;;17.23;;
2854;SDS011;1435;49.472;10.940;2022-11-30T10:46:35;24.43;;;14.97;;
2854;SDS011;1435;49.472;10.940;2022-11-30T10:51:41;28.40;;;16.60;;
2854;SDS011;1435;49.472;10.940;2022-11-30T10:56:45;31.87;;;18.20;;
2854;SDS011;1435;49.472;10.940;2022-11-30T11:01:47;25.77;;;16.70;;
2854;SDS011;1435;49.472;10.940;2022-11-30T11:06:51;30.33;;;17.83;;
2854;SDS011;1435;49.472;10.940;2022-11-30T11:11:55;27.30;;;17.10;;
2854;SDS011;1435;49.472;10.940;2022-11-30T11:16:59;27.80;;;16.37;;
2854;SDS011;1435;49.472;10.940;2022-11-30T11:22:04;27.60;;;16.77;;
2854;SDS011;1435;49.472;10.940;2022-11-30T11:27:09;27.97;;;17.03;;
2854;SDS011;1435;49.472;10.940;2022-11-30T11:32:25;26.20;;;17.37;;
2854;SDS011;1435;49.472;10.940;2022-11-30T11:37:29;23.70;;;14.90;;
2854;SDS011;1435;49.472;10.940;2022-11-30T11:42:33;27.90;;;18.30;;
2854;SDS011;1435;49.472;10.940;2022-11-30T11:47:38;28.03;;;18.13;;
2854;SDS011;1435;49.472;10.940;2022-11-30T11:52:42;24.40;;;16.27;;
2854;SDS011;1435;49.472;10.940;2022-11-30T11:57:45;28.23;;;16.50;;
2854;SDS011;1435;49.472;10.940;2022-11-30T12:02:52;23.07;;;14.87;;
2854;SDS011;1435;49.472;10.940;2022-11-30T12:08:06;25.93;;;16.90;;
2854;SDS011;1435;49.472;10.940;2022-11-30T12:13:15;28.70;;;18.00;;
2854;SDS011;1435;49.472;10.940;2022-11-30T12:18:21;29.30;;;16.70;;
2854;SDS011;1435;49.472;10.940;2022-11-30T12:29:04;23.30;;;16.77;;
2854;SDS011;1435;49.472;10.940;2022-11-30T12:34:21;22.10;;;14.77;;
2854;SDS011;1435;49.472;10.940;2022-11-30T12:39:34;22.20;;;15.57;;
2854;SDS011;1435;49.472;10.940;2022-11-30T12:44:45;23.97;;;14.83;;
2854;SDS011;1435;49.472;10.940;2022-11-30T12:49:56;21.83;;;16.97;;
2854;SDS011;1435;49.472;10.940;2022-11-30T12:55:13;32.60;;;23.87;;
2854;SDS011;1435;49.472;10.940;2022-11-30T13:00:23;28.73;;;20.10;;
2854;SDS011;1435;49.472;10.940;2022-11-30T13:05:30;25.57;;;18.60;;
2854;SDS011;1435;49.472;10.940;2022-11-30T13:10:38;23.30;;;17.03;;
2854;SDS011;1435;49.472;10.940;2022-11-30T13:15:42;25.63;;;17.43;;
2854;SDS011;1435;49.472;10.940;2022-11-30T13:20:47;24.23;;;16.80;;
2854;SDS011;1435;49.472;10.940;2022-11-30T13:25:55;20.77;;;16.17;;
2854;SDS011;1435;49.472;10.940;2022-11-30T13:31:04;22.30;;;15.97;;
2854;SDS011;1435;49.472;10.940;2022-11-30T13:36:20;19.93;;;14.53;;
2854;SDS011;1435;49.472;10.940;2022-11-30T13:41:36;22.47;;;16.77;;
2854;SDS011;1435;49.472;10.940;2022-11-30T13:46:38;22.13;;;15.93;;
2854;SDS011;1435;49.472;10.940;2022-11-30T13:51:49;23.60;;;17.13;;
2854;SDS011;1435;49.472;10.940;2022-11-30T13:56:52;21.23;;;17.60;;
2854;SDS011;1435;49.472;10.940;2022-11-30T14:02:48;22.70;;;15.87;;
2854;SDS011;1435;49.472;10.940;2022-11-30T14:07:42;22.43;;;16.10;;
2854;SDS011;1435;49.472;10.940;2022-11-30T14:12:57;19.10;;;15.47;;
2854;SDS011;1435;49.472;10.940;2022-11-30T14:17:59;22.50;;;15.80;;
2854;SDS011;1435;49.472;10.940;2022-11-30T14:23:12;18.57;;;13.80;;
2854;SDS011;1435;49.472;10.940;2022-11-30T14:28:18;20.97;;;15.30;;
2854;SDS011;1435;49.472;10.940;2022-11-30T14:33:24;21.70;;;15.80;;
2854;SDS011;1435;49.472;10.940;2022-11-30T14:38:41;21.90;;;14.87;;
2854;SDS011;1435;49.472;10.940;2022-11-30T14:43:57;22.50;;;17.07;;
2854;SDS011;1435;49.472;10.940;2022-11-30T14:49:04;27.87;;;19.67;;
2854;SDS011;1435;49.472;10.940;2022-11-30T14:54:18;26.73;;;17.07;;
2854;SDS011;1435;49.472;10.940;2022-11-30T14:59:45;26.20;;;17.80;;
2854;SDS011;1435;49.472;10.940;2022-11-30T15:04:49;24.23;;;17.13;;
2854;SDS011;1435;49.472;10.940;2022-11-30T15:09:55;30.90;;;21.17;;
2854;SDS011;1435;49.472;10.940;2022-11-30T15:15:05;26.57;;;18.83;;
2854;SDS011;1435;49.472;10.940;2022-11-30T15:20:16;20.30;;;15.53;;
2854;SDS011;1435;49.472;10.940;2022-11-30T15:25:19;23.50;;;17.00;;
2854;SDS011;1435;49.472;10.940;2022-11-30T15:30:24;25.40;;;20.70;;
2854;SDS011;1435;49.472;10.940;2022-11-30T15:35:27;21.77;;;16.13;;
2854;SDS011;1435;49.472;10.940;2022-11-30T15:40:30;23.10;;;17.03;;
2854;SDS011;1435;49.472;10.940;2022-11-30T15:45:35;25.63;;;19.93;;
2854;SDS011;1435;49.472;10.940;2022-11-30T15:50:39;25.47;;;18.83;;
2854;SDS011;1435;49.472;10.940;2022-11-30T15:55:42;24.70;;;19.37;;
2854;SDS011;1435;49.472;10.940;2022-11-30T16:00:57;26.07;;;19.27;;
2854;SDS011;1435;49.472;10.940;2022-11-30T16:06:05;25.23;;;17.73;;
2854;SDS011;1435;49.472;10.940;2022-11-30T16:11:08;24.90;;;18.40;;
2854;SDS011;1435;49.472;10.940;2022-11-30T16:16:13;21.70;;;16.10;;
2854;SDS011;1435;49.472;10.940;2022-11-30T16:21:19;24.50;;;16.50;;
2854;SDS011;1435;49.472;10.940;2022-11-30T16:26:21;27.77;;;19.90;;
2854;SDS011;1435;49.472;10.940;2022-11-30T16:31:24;23.90;;;18.17;;
2854;SDS011;1435;49.472;10.940;2022-11-30T16:36:26;23.83;;;17.40;;
2854;SDS011;1435;49.472;10.940;2022-11-30T16:41:29;23.23;;;16.80;;
2854;SDS011;1435;49.472;10.940;2022-11-30T16:46:32;26.17;;;18.20;;
2854;SDS011;1435;49.472;10.940;2022-11-30T16:51:34;29.03;;;18.57;;
2854;SDS011;1435;49.472;10.940;2022-11-30T16:56:36;21.00;;;16.33;;
2854;SDS011;1435;49.472;10.940;2022-11-30T17:01:40;26.70;;;18.57;;
2854;SDS011;1435;49.472;10.940;2022-11-30T17:06:44;23.50;;;15.60;;
2854;SDS011;1435;49.472;10.940;2022-11-30T17:11:46;28.00;;;17.30;;
2854;SDS011;1435;49.472;10.940;2022-11-30T17:16:51;29.40;;;20.07;;
2854;SDS011;1435;49.472;10.940;2022-11-30T17:21:53;27.23;;;18.60;;
2854;SDS011;1435;49.472;10.940;2022-11-30T17:26:55;24.13;;;17.30;;
2854;SDS011;1435;49.472;10.940;2022-11-30T17:32:00;23.10;;;17.77;;
2854;SDS011;1435;49.472;10.940;2022-11-30T17:37:01;24.27;;;17.83;;
2854;SDS011;1435;49.472;10.940;2022-11-30T17:42:03;22.80;;;15.90;;
2854;SDS011;1435;49.472;10.940;2022-11-30T17:47:07;26.20;;;16.93;;
2854;SDS011;1435;49.472;10.940;2022-11-30T17:52:08;23.97;;;16.57;;
2854;SDS011;1435;49.472;10.940;2022-11-30T17:57:11;23.57;;;17.63;;
2854;SDS011;1435;49.472;10.940;2022-11-30T18:02:14;26.13;;;19.60;;
2854;SDS011;1435;49.472;10.940;2022-11-30T18:07:16;22.43;;;16.10;;
2854;SDS011;1435;49.472;10.940;2022-11-30T18:12:19;20.77;;;16.70;;
2854;SDS011;1435;49.472;10.940;2022-11-30T18:17:22;24.63;;;17.80;;
2854;SDS011;1435;49.472;10.940;2022-11-30T18:22:24;23.83;;;17.80;;
2854;SDS011;1435;49.472;10.940;2022-11-30T18:27:27;23.20;;;16.70;;
2854;SDS011;1435;49.472;10.940;2022-11-30T18:32:30;26.77;;;18.50;;
2854;SDS011;1435;49.472;10.940;2022-11-30T18:37:32;26.30;;;18.67;;
2854;SDS011;1435;49.472;10.940;2022-11-30T18:42:33;28.53;;;18.70;;
2854;SDS011;1435;49.472;10.940;2022-11-30T18:47:36;31.60;;;20.20;;
2854;SDS011;1435;49.472;10.940;2022-11-30T18:52:38;26.47;;;17.93;;
2854;SDS011;1435;49.472;10.940;2022-11-30T18:57:40;31.30;;;20.33;;
2854;SDS011;1435;49.472;10.940;2022-11-30T19:02:43;26.80;;;20.57;;
2854;SDS011;1435;49.472;10.940;2022-11-30T19:07:45;30.60;;;21.17;;
2854;SDS011;1435;49.472;10.940;2022-11-30T19:12:47;30.30;;;21.03;;
2854;SDS011;1435;49.472;10.940;2022-11-30T19:17:50;22.83;;;17.23;;
2854;SDS011;1435;49.472;10.940;2022-11-30T19:22:52;22.73;;;16.47;;
2854;SDS011;1435;49.472;10.940;2022-11-30T19:27:53;24.33;;;16.33;;
2854;SDS011;1435;49.472;10.940;2022-11-30T19:32:56;24.30;;;17.10;;
2854;SDS011;1435;49.472;10.940;2022-11-30T19:37:58;27.97;;;18.40;;
2854;SDS011;1435;49.472;10.940;2022-11-30T19:43:01;24.47;;;18.27;;
2854;SDS011;1435;49.472;10.940;2022-11-30T19:48:05;23.90;;;15.97;;
2854;SDS011;1435;49.472;10.940;2022-11-30T19:53:07;21.43;;;15.50;;
2854;SDS011;1435;49.472;10.940;2022-11-30T19:58:08;25.97;;;15.97;;
2854;SDS011;1435;49.472;10.940;2022-11-30T20:03:11;23.77;;;16.43;;
2854;SDS011;1435;49.472;10.940;2022-11-30T20:08:13;24.37;;;16.50;;
2854;SDS011;1435;49.472;10.940;2022-11-30T20:13:15;25.43;;;18.17;;
2854;SDS011;1435;49.472;10.940;2022-11-30T20:18:18;24.70;;;17.20;;
2854;SDS011;1435;49.472;10.940;2022-11-30T20:23:20;26.50;;;18.60;;
2854;SDS011;1435;49.472;10.940;2022-11-30T20:28:22;22.13;;;14.60;;
2854;SDS011;1435;49.472;10.940;2022-11-30T20:33:25;23.53;;;16.60;;
2854;SDS011;1435;49.472;10.940;2022-11-30T20:38:27;20.77;;;14.80;;
2854;SDS011;1435;49.472;10.940;2022-11-30T20:43:29;25.03;;;17.07;;
2854;SDS011;1435;49.472;10.940;2022-11-30T20:48:32;23.47;;;15.50;;
2854;SDS011;1435;49.472;10.940;2022-11-30T20:53:34;26.67;;;18.10;;
2854;SDS011;1435;49.472;10.940;2022-11-30T20:58:36;24.17;;;16.90;;
2854;SDS011;1435;49.472;10.940;2022-11-30T21:03:39;24.87;;;15.30;;
2854;SDS011;1435;49.472;10.940;2022-11-30T21:08:42;23.00;;;16.53;;
2854;SDS011;1435;49.472;10.940;2022-11-30T21:13:44;23.57;;;16.50;;
2854;SDS011;1435;49.472;10.940;2022-11-30T21:18:48;22.10;;;16.67;;
2854;SDS011;1435;49.472;10.940;2022-11-30T21:23:50;24.93;;;17.30;;
2854;SDS011;1435;49.472;10.940;2022-11-30T21:28:53;20.77;;;14.90;;
2854;SDS011;1435;49.472;10.940;2022-11-30T21:34:00;23.40;;;15.87;;
2854;SDS011;1435;49.472;10.940;2022-11-30T21:39:02;24.30;;;14.47;;
2854;SDS011;1435;49.472;10.940;2022-11-30T21:44:08;26.70;;;16.23;;
2854;SDS011;1435;49.472;10.940;2022-11-30T21:49:13;21.50;;;15.87;;
2854;SDS011;1435;49.472;10.940;2022-11-30T21:54:15;21.83;;;15.80;;
2854;SDS011;1435;49.472;10.940;2022-11-30T21:59:17;26.60;;;18.30;;
2854;SDS011;1435;49.472;10.940;2022-11-30T22:04:20;21.67;;;15.27;;
2854;SDS011;1435;49.472;10.940;2022-11-30T22:09:22;25.60;;;15.93;;
2854;SDS011;1435;49.472;10.940;2022-11-30T22:14:24;22.73;;;15.13;;
2854;SDS011;1435;49.472;10.940;2022-11-30T22:19:27;24.63;;;16.73;;
2854;SDS011;1435;49.472;10.940;2022-11-30T22:24:29;23.23;;;16.30;;
2854;SDS011;1435;49.472;10.940;2022-11-30T22:29:31;24.20;;;16.00;;
2854;SDS011;1435;49.472;10.940;2022-11-30T22:34:34;27.67;;;17.40;;
2854;SDS011;1435;49.472;10.940;2022-11-30T22:39:36;21.23;;;15.50;;
2854;SDS011;1435;49.472;10.940;2022-11-30T22:44:38;23.03;;;15.77;;
2854;SDS011;1435;49.472;10.940;2022-11-30T22:49:41;23.80;;;16.67;;
2854;SDS011;1435;49.472;10.940;2022-11-30T22:54:42;23.80;;;14.97;;
2854;SDS011;1435;49.472;10.940;2022-11-30T22:59:44;19.93;;;13.87;;
2854;SDS011;1435;49.472;10.940;2022-11-30T23:04:47;23.70;;;15.47;;
2854;SDS011;1435;49.472;10.940;2022-11-30T23:09:49;23.17;;;17.27;;
2854;SDS011;1435;49.472;10.940;2022-11-30T23:14:51;21.30;;;13.90;;
2854;SDS011;1435;49.472;10.940;2022-11-30T23:19:54;22.37;;;14.70;;
2854;SDS011;1435;49.472;10.940;2022-11-30T23:24:56;19.57;;;13.47;;
2854;SDS011;1435;49.472;10.940;2022-11-30T23:29:58;18.43;;;13.70;;
2854;SDS011;1435;49.472;10.940;2022-11-30T23:35:01;22.30;;;14.73;;
2854;SDS011;1435;49.472;10.940;2022-11-30T23:40:03;19.20;;;14.63;;
2854;SDS011;1435;49.472;10.940;2022-11-30T23:45:06;19.03;;;13.47;;
2854;SDS011;1435;49.472;10.940;2022-11-30T23:50:10;18.50;;;12.33;;
2854;SDS011;1435;49.472;10.940;2022-11-30T23:55:12;19.87;;;13.77;;
